Time;durP1;ratioP1;P1;durP2;ratioP2;P2;SDS_P1;SDS_P2;PMS_P1;PMS_P2;Temp;Humidity;BMP_temperature;BMP_pressure;BME280_temperature;BME280_humidity;BME280_pressure;Samples;Min_cycle;Max_cycle;Signal;HPM_P1;HPM_P2
2022/09/19 00:01:25;;;;;;;1.47;1.37;;;;;;;;;;5115361;27;20290;-64
2022/09/19 00:03:58;;;;;;;1.27;1.27;;;;;;;;;;5115600;27;20272;-65
2022/09/19 00:06:27;;;;;;;1.70;1.60;;;;;;;;;;5114779;27;20320;-64
2022/09/19 00:08:55;;;;;;;1.87;1.50;;;;;;;;;;5115707;27;20414;-66
2022/09/19 00:11:23;;;;;;;1.63;1.50;;;;;;;;;;5133347;27;20223;-66
2022/09/19 00:13:51;;;;;;;1.30;1.30;;;;;;;;;;5115275;27;20248;-64
2022/09/19 00:16:28;;;;;;;1.50;1.40;;;;;;;;;;5115786;27;20558;-66
2022/09/19 00:18:56;;;;;;;1.33;1.30;;;;;;;;;;5148527;27;20195;-66
2022/09/19 00:21:25;;;;;;;1.50;1.40;;;;;;;;;;5114493;27;20283;-66
2022/09/19 00:26:39;;;;;;;2.77;1.60;;;;;;;;;;5119583;28;20240;-66
2022/09/19 00:29:08;;;;;;;2.50;1.30;;;;;;;;;;5132297;27;20267;-68
2022/09/19 00:31:36;;;;;;;1.50;1.40;;;;;;;;;;5118452;27;20199;-65
2022/09/19 00:34:06;;;;;;;1.57;1.40;;;;;;;;;;5114841;27;20225;-66
2022/09/19 00:36:37;;;;;;;1.53;1.43;;;;;;;;;;5114399;27;20196;-64
2022/09/19 00:39:05;;;;;;;1.80;1.70;;;;;;;;;;5114911;27;20294;-64
2022/09/19 00:41:33;;;;;;;2.13;1.43;;;;;;;;;;5134115;27;20295;-65
2022/09/19 00:44:05;;;;;;;2.30;1.70;;;;;;;;;;5115327;27;20310;-66
2022/09/19 00:46:34;;;;;;;3.23;1.47;;;;;;;;;;5114540;27;20219;-67
2022/09/19 00:49:07;;;;;;;1.43;1.33;;;;;;;;;;5110485;27;20571;-66
2022/09/19 00:51:40;;;;;;;1.60;1.50;;;;;;;;;;5124906;27;20278;-64
2022/09/19 00:54:13;;;;;;;1.77;1.67;;;;;;;;;;5114306;27;20311;-65
2022/09/19 00:56:45;;;;;;;2.03;1.77;;;;;;;;;;5123689;27;20278;-67
2022/09/19 00:59:13;;;;;;;3.07;1.70;;;;;;;;;;5116873;27;20279;-66
2022/09/19 01:01:41;;;;;;;3.17;1.50;;;;;;;;;;5114505;27;20585;-65
2022/09/19 01:04:14;;;;;;;1.50;1.40;;;;;;;;;;5114103;27;20306;-64
2022/09/19 01:06:48;;;;;;;1.33;1.23;;;;;;;;;;5114866;27;20628;-66
2022/09/19 01:09:39;;;;;;;1.63;1.50;;;;;;;;;;5114818;27;20290;-65
2022/09/19 01:12:25;;;;;;;1.70;1.60;;;;;;;;;;5114834;27;20389;-65
2022/09/19 01:15:11;;;;;;;1.60;1.50;;;;;;;;;;5115314;27;20223;-67
2022/09/19 01:17:45;;;;;;;1.73;1.37;;;;;;;;;;5113959;27;20631;-65
2022/09/19 01:20:22;;;;;;;1.40;1.30;;;;;;;;;;5132066;27;20219;-65
2022/09/19 01:22:56;;;;;;;0.90;0.90;;;;;;;;;;5107672;27;20672;-64
2022/09/19 01:25:31;;;;;;;1.87;1.20;;;;;;;;;;5113418;27;20306;-66
2022/09/19 01:28:11;;;;;;;1.57;1.03;;;;;;;;;;5113189;27;20198;-66
2022/09/19 01:30:42;;;;;;;1.30;1.20;;;;;;;;;;5113470;27;20203;-67
2022/09/19 01:33:17;;;;;;;1.10;1.10;;;;;;;;;;5115267;27;20720;-66
2022/09/19 01:35:50;;;;;;;1.00;1.00;;;;;;;;;;5106599;27;20195;-66
2022/09/19 01:38:21;;;;;;;1.20;1.20;;;;;;;;;;5113916;27;20231;-64
2022/09/19 01:40:49;;;;;;;1.37;1.10;;;;;;;;;;5132149;27;20310;-65
2022/09/19 01:43:18;;;;;;;1.40;1.30;;;;;;;;;;5132177;27;20203;-65
2022/09/19 01:45:46;;;;;;;1.00;1.00;;;;;;;;;;5096111;27;20673;-66
2022/09/19 01:48:20;;;;;;;0.97;0.97;;;;;;;;;;5113622;27;20210;-66
2022/09/19 01:50:59;;;;;;;1.00;1.00;;;;;;;;;;5124214;27;20683;-67
2022/09/19 01:53:46;;;;;;;1.10;1.07;;;;;;;;;;5113399;27;20195;-65
2022/09/19 01:56:24;;;;;;;1.00;1.00;;;;;;;;;;5112950;27;20230;-66
2022/09/19 01:59:06;;;;;;;1.67;1.33;;;;;;;;;;5112802;27;20235;-66
2022/09/19 02:01:52;;;;;;;1.50;1.23;;;;;;;;;;5113285;27;20310;-65
2022/09/19 02:04:22;;;;;;;0.90;0.90;;;;;;;;;;5110689;27;20230;-66
2022/09/19 02:06:49;;;;;;;1.10;1.10;;;;;;;;;;5113174;27;20239;-66
2022/09/19 02:09:36;;;;;;;1.10;1.00;;;;;;;;;;5113565;27;20278;-64
2022/09/19 02:12:06;;;;;;;1.23;1.00;;;;;;;;;;5105331;27;20235;-67
2022/09/19 02:14:35;;;;;;;1.33;1.07;;;;;;;;;;5112925;27;20247;-65
2022/09/19 02:17:12;;;;;;;0.80;0.80;;;;;;;;;;5112482;27;20238;-66
2022/09/19 02:19:40;;;;;;;1.37;0.90;;;;;;;;;;5112609;27;20297;-66
2022/09/19 02:22:09;;;;;;;1.20;1.10;;;;;;;;;;5112991;27;20286;-65
2022/09/19 02:24:38;;;;;;;0.90;0.90;;;;;;;;;;5113325;27;20303;-65
2022/09/19 02:27:08;;;;;;;1.00;1.00;;;;;;;;;;5112437;27;20282;-66
2022/09/19 02:29:39;;;;;;;1.67;1.20;;;;;;;;;;5104824;27;20230;-67
2022/09/19 02:32:07;;;;;;;1.40;1.30;;;;;;;;;;5130379;27;20196;-65
2022/09/19 02:34:35;;;;;;;0.90;0.90;;;;;;;;;;5104548;28;20220;-64
2022/09/19 02:37:05;;;;;;;1.10;1.10;;;;;;;;;;5111118;28;20680;-66
2022/09/19 02:39:51;;;;;;;1.13;1.10;;;;;;;;;;5112758;28;20191;-65
2022/09/19 02:42:23;;;;;;;1.87;1.30;;;;;;;;;;5092323;28;20295;-64
2022/09/19 02:44:52;;;;;;;1.07;1.07;;;;;;;;;;5092744;28;20602;-65
2022/09/19 02:47:24;;;;;;;1.57;1.10;;;;;;;;;;5111999;28;20665;-65
2022/09/19 02:49:55;;;;;;;1.57;1.20;;;;;;;;;;5112797;28;20210;-65
2022/09/19 02:52:27;;;;;;;1.13;1.03;;;;;;;;;;5112481;28;20295;-66
2022/09/19 02:54:56;;;;;;;2.43;1.20;;;;;;;;;;5113239;28;20306;-64
2022/09/19 02:57:24;;;;;;;2.53;1.50;;;;;;;;;;5115182;27;20640;-66
2022/09/19 02:59:55;;;;;;;2.80;1.60;;;;;;;;;;5116581;27;20318;-65
2022/09/19 03:02:24;;;;;;;4.00;2.47;;;;;;;;;;5117221;27;20230;-64
2022/09/19 03:05:02;;;;;;;1.43;1.30;;;;;;;;;;5117061;27;20222;-64
2022/09/19 03:07:32;;;;;;;3.47;1.60;;;;;;;;;;5134095;27;20603;-64
2022/09/19 03:10:03;;;;;;;2.67;1.40;;;;;;;;;;5117262;27;20199;-65
2022/09/19 03:12:35;;;;;;;5.30;1.70;;;;;;;;;;5117107;27;20292;-65
2022/09/19 03:15:05;;;;;;;2.73;1.50;;;;;;;;;;5117001;27;20226;-65
2022/09/19 03:17:35;;;;;;;2.87;1.50;;;;;;;;;;5116242;27;20210;-66
2022/09/19 03:20:03;;;;;;;2.57;1.37;;;;;;;;;;5115841;27;20696;-65
2022/09/19 03:22:31;;;;;;;2.70;1.70;;;;;;;;;;5134037;27;20278;-66
2022/09/19 03:25:02;;;;;;;3.00;1.47;;;;;;;;;;5116687;27;20228;-65
2022/09/19 03:27:30;;;;;;;3.80;1.40;;;;;;;;;;5116039;27;20291;-65
2022/09/19 03:29:57;;;;;;;5.27;1.50;;;;;;;;;;5116033;27;20208;-65
2022/09/19 03:32:26;;;;;;;1.40;1.30;;;;;;;;;;5117067;27;20203;-66
2022/09/19 03:34:55;;;;;;;3.30;1.60;;;;;;;;;;5116551;27;20234;-66
2022/09/19 03:37:23;;;;;;;2.90;1.40;;;;;;;;;;5115441;27;20246;-66
2022/09/19 03:39:50;;;;;;;3.10;1.43;;;;;;;;;;5116081;27;20200;-66
2022/09/19 03:42:19;;;;;;;1.97;1.40;;;;;;;;;;5115947;27;20204;-64
2022/09/19 03:44:46;;;;;;;2.37;1.40;;;;;;;;;;5115444;27;20761;-63
2022/09/19 03:47:13;;;;;;;7.00;2.80;;;;;;;;;;5133642;27;20210;-65
2022/09/19 03:49:40;;;;;;;3.77;1.80;;;;;;;;;;5116508;27;20301;-66
2022/09/19 03:52:08;;;;;;;1.57;1.43;;;;;;;;;;5115054;27;20476;-63
2022/09/19 03:54:35;;;;;;;1.80;1.30;;;;;;;;;;5112010;27;20220;-66
2022/09/19 03:57:03;;;;;;;2.43;1.70;;;;;;;;;;5114947;27;20234;-65
2022/09/19 03:59:30;;;;;;;1.40;1.30;;;;;;;;;;5123660;27;20282;-64
2022/09/19 04:01:58;;;;;;;3.33;1.30;;;;;;;;;;5115390;27;20238;-66
2022/09/19 04:04:25;;;;;;;4.40;1.67;;;;;;;;;;5115691;27;20219;-66
2022/09/19 04:06:52;;;;;;;3.07;1.40;;;;;;;;;;5112230;27;20294;-66
2022/09/19 04:09:23;;;;;;;3.47;1.60;;;;;;;;;;5113678;27;20192;-65
2022/09/19 04:11:50;;;;;;;3.60;1.30;;;;;;;;;;5115275;27;20744;-66
2022/09/19 04:14:17;;;;;;;1.53;1.13;;;;;;;;;;5112715;27;20736;-65
2022/09/19 04:16:45;;;;;;;1.53;1.30;;;;;;;;;;5133394;27;20724;-66
2022/09/19 04:19:12;;;;;;;1.77;1.23;;;;;;;;;;5115508;27;20238;-66
2022/09/19 04:21:41;;;;;;;4.07;1.30;;;;;;;;;;5111360;28;20230;-65
2022/09/19 04:24:09;;;;;;;4.27;1.50;;;;;;;;;;5116970;27;20641;-66
2022/09/19 04:26:37;;;;;;;2.17;1.57;;;;;;;;;;5114982;27;20353;-64
2022/09/19 04:29:06;;;;;;;2.67;1.30;;;;;;;;;;5114993;27;20199;-66
2022/09/19 04:31:40;;;;;;;2.83;1.37;;;;;;;;;;5114445;27;20683;-66
2022/09/19 04:34:08;;;;;;;8.50;1.63;;;;;;;;;;5133041;27;20227;-66
2022/09/19 04:36:35;;;;;;;6.87;1.40;;;;;;;;;;5133192;27;20202;-66
2022/09/19 04:39:02;;;;;;;4.77;2.00;;;;;;;;;;5115177;27;20462;-65
2022/09/19 04:41:32;;;;;;;4.40;1.47;;;;;;;;;;5114461;27;20223;-65
2022/09/19 04:44:01;;;;;;;1.90;1.00;;;;;;;;;;5125550;27;20621;-66
2022/09/19 04:46:28;;;;;;;4.67;1.40;;;;;;;;;;5128425;27;20349;-66
2022/09/19 04:48:56;;;;;;;9.23;1.80;;;;;;;;;;5114382;27;20747;-65
2022/09/19 04:51:24;;;;;;;3.43;1.50;;;;;;;;;;5114210;27;20290;-66
2022/09/19 04:53:51;;;;;;;5.17;1.63;;;;;;;;;;5108484;27;20318;-65
2022/09/19 04:56:20;;;;;;;4.17;1.37;;;;;;;;;;5118263;27;20698;-65
2022/09/19 04:58:48;;;;;;;4.77;1.77;;;;;;;;;;5117432;27;20648;-64
2022/09/19 05:01:16;;;;;;;5.00;1.30;;;;;;;;;;5114719;27;20623;-65
2022/09/19 05:03:43;;;;;;;4.53;1.30;;;;;;;;;;5114807;27;20255;-64
2022/09/19 05:06:12;;;;;;;3.87;1.40;;;;;;;;;;5114057;27;20294;-65
2022/09/19 05:08:40;;;;;;;7.40;1.40;;;;;;;;;;5114414;27;20425;-64
2022/09/19 05:11:08;;;;;;;3.40;1.27;;;;;;;;;;5114326;27;20208;-63
2022/09/19 05:13:40;;;;;;;2.90;1.20;;;;;;;;;;5114221;27;20286;-65
2022/09/19 05:16:08;;;;;;;5.97;1.40;;;;;;;;;;5113599;27;20283;-64
2022/09/19 05:18:37;;;;;;;5.27;1.50;;;;;;;;;;5113515;27;20673;-65
2022/09/19 05:21:06;;;;;;;3.33;1.20;;;;;;;;;;5112695;27;20285;-65
2022/09/19 05:23:36;;;;;;;3.90;1.50;;;;;;;;;;5113551;27;20628;-66
2022/09/19 05:26:08;;;;;;;2.77;1.23;;;;;;;;;;5113670;27;20200;-64
2022/09/19 05:28:36;;;;;;;3.60;1.20;;;;;;;;;;5113773;27;20639;-65
2022/09/19 05:31:07;;;;;;;3.20;1.20;;;;;;;;;;5113435;27;20256;-64
2022/09/19 05:33:34;;;;;;;3.93;1.20;;;;;;;;;;5114073;27;20490;-65
2022/09/19 05:36:02;;;;;;;5.37;1.23;;;;;;;;;;5113249;27;20203;-65
2022/09/19 05:38:31;;;;;;;3.30;1.13;;;;;;;;;;5113577;27;20203;-65
2022/09/19 05:40:59;;;;;;;2.00;1.30;;;;;;;;;;5111534;27;20307;-65
2022/09/19 05:43:27;;;;;;;4.43;2.20;;;;;;;;;;5113797;27;20278;-64
2022/09/19 05:45:55;;;;;;;4.77;1.23;;;;;;;;;;5109753;28;20206;-65
2022/09/19 05:48:23;;;;;;;4.73;1.10;;;;;;;;;;5115355;27;20288;-65
2022/09/19 05:50:51;;;;;;;6.63;1.43;;;;;;;;;;5113868;27;20756;-65
2022/09/19 05:56:06;;;;;;;5.43;1.17;;;;;;;;;;5125241;27;20207;-65
2022/09/19 05:58:36;;;;;;;2.37;1.37;;;;;;;;;;5113142;27;20199;-67
2022/09/19 06:01:07;;;;;;;3.43;1.10;;;;;;;;;;5113313;27;20221;-64
2022/09/19 06:03:35;;;;;;;4.07;1.40;;;;;;;;;;5113530;27;20331;-65
2022/09/19 06:06:09;;;;;;;4.93;1.30;;;;;;;;;;5131939;27;20297;-65
2022/09/19 06:08:36;;;;;;;4.13;1.53;;;;;;;;;;5119565;27;20671;-65
2022/09/19 06:11:03;;;;;;;4.23;1.37;;;;;;;;;;5112567;27;20207;-63
2022/09/19 06:16:20;;;;;;;4.07;1.83;;;;;;;;;;5131368;27;20226;-65
2022/09/19 06:18:47;;;;;;;4.53;2.07;;;;;;;;;;5116424;27;20612;-65
2022/09/19 06:21:15;;;;;;;5.50;1.40;;;;;;;;;;5117851;27;20231;-64
2022/09/19 06:23:42;;;;;;;5.77;1.40;;;;;;;;;;5113109;27;20215;-65
2022/09/19 06:26:11;;;;;;;3.30;1.33;;;;;;;;;;5112846;28;20238;-65
2022/09/19 06:28:39;;;;;;;2.23;1.60;;;;;;;;;;5113630;27;20286;-66
2022/09/19 06:31:07;;;;;;;4.97;1.50;;;;;;;;;;5113446;28;20638;-63
2022/09/19 06:33:35;;;;;;;7.47;1.53;;;;;;;;;;5113666;27;20294;-65
2022/09/19 06:36:03;;;;;;;3.40;1.20;;;;;;;;;;5113555;28;20203;-66
2022/09/19 06:38:34;;;;;;;5.70;1.50;;;;;;;;;;5119808;27;20248;-66
2022/09/19 06:41:06;;;;;;;4.40;1.50;;;;;;;;;;5133703;27;20250;-65
2022/09/19 06:43:33;;;;;;;5.90;1.80;;;;;;;;;;5133685;27;20279;-65
2022/09/19 06:46:00;;;;;;;2.13;1.40;;;;;;;;;;5133226;27;20210;-66
2022/09/19 06:48:28;;;;;;;4.00;1.50;;;;;;;;;;5133462;27;20228;-66
2022/09/19 06:50:55;;;;;;;1.97;1.20;;;;;;;;;;5152224;27;20202;-66
2022/09/19 06:53:22;;;;;;;4.43;2.03;;;;;;;;;;5142723;27;20241;-64
2022/09/19 06:55:50;;;;;;;5.30;1.77;;;;;;;;;;5133009;28;20293;-66
2022/09/19 06:58:17;;;;;;;5.63;1.67;;;;;;;;;;5113166;28;20269;-65
2022/09/19 07:00:45;;;;;;;4.13;1.97;;;;;;;;;;5112898;28;20200;-66
2022/09/19 07:03:15;;;;;;;4.80;1.60;;;;;;;;;;5113001;28;20203;-64
2022/09/19 07:05:44;;;;;;;5.20;1.60;;;;;;;;;;5112297;28;20227;-66
2022/09/19 07:08:13;;;;;;;2.20;1.50;;;;;;;;;;5112897;27;20673;-66
2022/09/19 07:10:42;;;;;;;2.13;1.53;;;;;;;;;;5112272;28;20195;-65
2022/09/19 07:13:13;;;;;;;3.60;1.33;;;;;;;;;;5112574;28;20206;-64
2022/09/19 07:15:41;;;;;;;4.50;1.43;;;;;;;;;;5112233;28;20223;-66
2022/09/19 07:18:10;;;;;;;3.47;1.70;;;;;;;;;;5112621;28;20229;-64
2022/09/19 07:20:38;;;;;;;8.87;1.77;;;;;;;;;;5112414;28;20422;-64
2022/09/19 07:23:15;;;;;;;3.40;1.50;;;;;;;;;;5112723;28;20576;-66
2022/09/19 07:25:43;;;;;;;3.87;1.57;;;;;;;;;;5111828;28;20315;-64
2022/09/19 07:28:12;;;;;;;5.27;1.70;;;;;;;;;;5112175;28;20623;-66
2022/09/19 07:30:40;;;;;;;5.80;1.70;;;;;;;;;;5114807;28;20831;-66
2022/09/19 07:33:08;;;;;;;3.77;1.53;;;;;;;;;;5112517;28;20195;-65
2022/09/19 07:35:36;;;;;;;5.63;1.80;;;;;;;;;;5112284;28;20318;-64
2022/09/19 07:38:04;;;;;;;5.93;2.00;;;;;;;;;;5112789;28;20200;-63
2022/09/19 07:40:33;;;;;;;4.77;1.93;;;;;;;;;;5130391;28;20206;-65
2022/09/19 07:43:04;;;;;;;10.77;2.07;;;;;;;;;;5112975;27;20262;-66
2022/09/19 07:45:36;;;;;;;6.43;1.80;;;;;;;;;;5116030;27;20735;-65
2022/09/19 07:48:04;;;;;;;6.50;1.77;;;;;;;;;;5135353;27;20499;-64
2022/09/19 07:50:32;;;;;;;4.73;2.07;;;;;;;;;;5136559;27;20198;-65
2022/09/19 07:53:00;;;;;;;8.37;2.00;;;;;;;;;;5136788;27;20230;-66
2022/09/19 07:55:28;;;;;;;7.00;1.70;;;;;;;;;;5136308;27;20669;-66
2022/09/19 07:57:56;;;;;;;4.60;1.53;;;;;;;;;;5128492;27;20268;-66
2022/09/19 08:00:28;;;;;;;3.87;1.40;;;;;;;;;;5116295;27;20294;-66
2022/09/19 08:02:58;;;;;;;7.00;1.60;;;;;;;;;;5116887;27;20294;-65
2022/09/19 08:05:27;;;;;;;5.03;1.77;;;;;;;;;;5133589;27;20218;-66
2022/09/19 08:07:56;;;;;;;5.97;1.80;;;;;;;;;;5115691;27;20771;-66
2022/09/19 08:10:23;;;;;;;6.33;1.87;;;;;;;;;;5115108;27;20243;-63
2022/09/19 08:12:51;;;;;;;5.00;1.73;;;;;;;;;;5115851;27;20294;-64
2022/09/19 08:15:19;;;;;;;9.60;1.70;;;;;;;;;;5116154;27;20569;-66
2022/09/19 08:18:01;;;;;;;6.93;1.87;;;;;;;;;;5115754;27;20298;-66
2022/09/19 08:20:30;;;;;;;5.90;2.10;;;;;;;;;;5121298;27;20297;-66
2022/09/19 08:23:02;;;;;;;6.50;2.10;;;;;;;;;;5136333;27;20762;-66
2022/09/19 08:25:30;;;;;;;5.83;1.90;;;;;;;;;;5136399;27;20222;-65
2022/09/19 08:27:58;;;;;;;9.47;1.97;;;;;;;;;;5127698;27;20195;-65
2022/09/19 08:30:27;;;;;;;5.13;2.00;;;;;;;;;;5115176;27;20638;-65
2022/09/19 08:32:56;;;;;;;9.90;2.07;;;;;;;;;;5115154;27;20246;-67
2022/09/19 08:35:24;;;;;;;7.43;1.80;;;;;;;;;;5132886;27;20314;-67
2022/09/19 08:37:55;;;;;;;10.23;2.07;;;;;;;;;;5124453;27;20615;-66
2022/09/19 08:40:27;;;;;;;6.97;2.17;;;;;;;;;;5135706;27;20323;-66
2022/09/19 08:43:21;;;;;;;3.93;1.87;;;;;;;;;;5135693;27;20227;-64
2022/09/19 08:46:06;;;;;;;6.60;1.93;;;;;;;;;;5131175;27;20769;-65
2022/09/19 08:48:49;;;;;;;8.23;2.07;;;;;;;;;;5135494;27;20195;-64
2022/09/19 08:51:31;;;;;;;5.50;1.80;;;;;;;;;;5135497;27;20245;-65
2022/09/19 08:54:13;;;;;;;9.60;2.30;;;;;;;;;;5142737;27;20213;-65
2022/09/19 08:56:40;;;;;;;6.80;1.80;;;;;;;;;;5157101;27;20209;-64
2022/09/19 08:59:13;;;;;;;8.23;2.00;;;;;;;;;;5119127;27;20231;-63
2022/09/19 09:01:40;;;;;;;8.20;2.07;;;;;;;;;;5111335;28;20235;-66
2022/09/19 09:04:11;;;;;;;8.77;1.80;;;;;;;;;;5096471;27;20772;-65
2022/09/19 09:06:50;;;;;;;7.03;1.70;;;;;;;;;;5113956;27;20203;-66
2022/09/19 09:09:36;;;;;;;7.87;1.90;;;;;;;;;;5114523;27;20195;-65
2022/09/19 09:12:05;;;;;;;8.17;2.00;;;;;;;;;;5115035;27;20206;-66
2022/09/19 09:14:38;;;;;;;8.87;1.77;;;;;;;;;;5114385;27;20708;-67
2022/09/19 09:17:18;;;;;;;5.63;1.77;;;;;;;;;;5114563;27;20290;-66
2022/09/19 09:19:46;;;;;;;5.73;1.80;;;;;;;;;;5114851;27;20675;-66
2022/09/19 09:22:22;;;;;;;8.60;1.80;;;;;;;;;;5114313;27;20318;-65
2022/09/19 09:24:53;;;;;;;7.57;1.80;;;;;;;;;;5114427;27;20219;-66
2022/09/19 09:27:24;;;;;;;6.90;1.80;;;;;;;;;;5114002;27;20650;-65
2022/09/19 09:29:53;;;;;;;4.57;1.67;;;;;;;;;;5114767;27;20235;-66
2022/09/19 09:32:39;;;;;;;7.87;1.70;;;;;;;;;;5114502;27;20292;-65
2022/09/19 09:35:06;;;;;;;3.00;1.37;;;;;;;;;;5114776;27;20223;-66
2022/09/19 09:37:40;;;;;;;5.93;1.30;;;;;;;;;;5114251;27;20219;-65
2022/09/19 09:41:44;;;;;;;4.20;1.40;;;;;;;;;;5116336;27;20187;-65
2022/09/19 09:43:05;;;;;;;3.33;1.40;;;;;;;;;;5139505;27;20241;-66
2022/09/19 09:45:48;;;;;;;7.93;1.77;;;;;;;;;;5120353;27;20265;-65
2022/09/19 09:48:26;;;;;;;3.47;1.40;;;;;;;;;;5134883;27;20261;-65
2022/09/19 09:51:13;;;;;;;4.90;1.30;;;;;;;;;;5134603;27;20263;-66
2022/09/19 09:53:49;;;;;;;7.10;1.33;;;;;;;;;;5134549;27;20321;-65
2022/09/19 09:56:25;;;;;;;5.77;1.90;;;;;;;;;;5134141;27;20209;-65
2022/09/19 09:58:59;;;;;;;3.23;1.57;;;;;;;;;;5118249;27;20281;-65
2022/09/19 10:04:22;;;;;;;5.70;1.63;;;;;;;;;;5135921;27;20752;-64
2022/09/19 10:06:54;;;;;;;2.67;1.47;;;;;;;;;;5112797;27;20209;-66
2022/09/19 10:09:29;;;;;;;2.97;1.60;;;;;;;;;;5111754;27;20294;-65
2022/09/19 10:12:14;;;;;;;3.30;1.70;;;;;;;;;;5113562;27;20192;-65
2022/09/19 10:15:03;;;;;;;3.13;1.67;;;;;;;;;;5116328;27;20227;-65
2022/09/19 10:17:39;;;;;;;3.03;1.50;;;;;;;;;;5113647;27;20211;-65
2022/09/19 10:20:15;;;;;;;3.13;1.60;;;;;;;;;;5126300;27;20226;-66
2022/09/19 10:22:43;;;;;;;2.47;1.30;;;;;;;;;;5155927;27;20218;-65
2022/09/19 10:25:12;;;;;;;2.33;1.30;;;;;;;;;;5142702;27;20313;-65
2022/09/19 10:27:41;;;;;;;3.23;1.53;;;;;;;;;;5127940;27;20563;-65
2022/09/19 10:30:18;;;;;;;2.93;1.10;;;;;;;;;;5113340;27;20282;-65
2022/09/19 10:32:45;;;;;;;3.63;1.30;;;;;;;;;;5112939;27;20637;-65
2022/09/19 10:35:25;;;;;;;3.27;1.47;;;;;;;;;;5113477;27;20658;-65
2022/09/19 10:37:54;;;;;;;3.37;1.50;;;;;;;;;;5130882;27;20210;-65
2022/09/19 10:40:23;;;;;;;4.10;1.60;;;;;;;;;;5133441;27;20285;-65
2022/09/19 10:42:50;;;;;;;2.80;1.57;;;;;;;;;;5133450;27;20806;-65
2022/09/19 10:45:21;;;;;;;3.33;1.73;;;;;;;;;;5133445;27;20317;-64
2022/09/19 10:47:48;;;;;;;5.60;1.63;;;;;;;;;;5133005;27;20306;-65
2022/09/19 10:50:17;;;;;;;4.60;1.50;;;;;;;;;;5133882;27;20289;-65
2022/09/19 10:52:46;;;;;;;2.97;1.60;;;;;;;;;;5133146;27;20293;-65
2022/09/19 10:55:21;;;;;;;5.87;1.77;;;;;;;;;;5094011;28;20227;-64
2022/09/19 10:57:59;;;;;;;4.63;1.50;;;;;;;;;;5099040;28;20211;-65
2022/09/19 11:00:26;;;;;;;1.57;1.27;;;;;;;;;;5112860;28;20206;-65
2022/09/19 11:02:58;;;;;;;4.73;1.40;;;;;;;;;;5112794;28;20226;-65
2022/09/19 11:05:26;;;;;;;4.77;1.80;;;;;;;;;;5112654;28;20223;-66
2022/09/19 11:07:54;;;;;;;2.30;1.33;;;;;;;;;;5112698;28;20208;-66
2022/09/19 11:10:32;;;;;;;3.10;1.30;;;;;;;;;;5115738;27;20199;-65
2022/09/19 11:13:07;;;;;;;1.97;1.30;;;;;;;;;;5112705;28;20246;-65
2022/09/19 11:15:41;;;;;;;2.53;1.30;;;;;;;;;;5112557;28;20456;-63
2022/09/19 11:18:15;;;;;;;4.50;1.63;;;;;;;;;;5113868;27;20648;-65
2022/09/19 11:20:57;;;;;;;3.13;1.40;;;;;;;;;;5116424;27;20283;-65
2022/09/19 11:23:30;;;;;;;2.43;1.70;;;;;;;;;;5114899;27;20281;-65
2022/09/19 11:26:10;;;;;;;3.23;1.80;;;;;;;;;;5115940;27;20290;-65
2022/09/19 11:28:49;;;;;;;5.57;1.87;;;;;;;;;;5117756;27;20227;-65
2022/09/19 11:31:20;;;;;;;3.57;1.43;;;;;;;;;;5116288;27;20595;-65
2022/09/19 11:34:11;;;;;;;1.67;1.37;;;;;;;;;;5118680;27;20224;-65
2022/09/19 11:36:58;;;;;;;1.67;1.20;;;;;;;;;;5120345;27;20199;-65
2022/09/19 11:39:47;;;;;;;1.47;1.20;;;;;;;;;;5111717;27;20216;-64
2022/09/19 11:42:27;;;;;;;4.00;1.37;;;;;;;;;;5120051;27;20211;-65
2022/09/19 11:45:01;;;;;;;3.60;1.50;;;;;;;;;;5115488;27;20231;-65
2022/09/19 11:47:31;;;;;;;2.43;1.20;;;;;;;;;;5115294;27;20294;-65
2022/09/19 11:50:05;;;;;;;1.40;1.30;;;;;;;;;;5115660;27;20691;-63
2022/09/19 11:52:47;;;;;;;4.33;1.90;;;;;;;;;;5115482;27;20267;-64
2022/09/19 11:55:14;;;;;;;2.23;1.60;;;;;;;;;;5115528;27;20495;-65
2022/09/19 11:57:54;;;;;;;5.53;1.50;;;;;;;;;;5133633;27;20293;-65
2022/09/19 12:00:25;;;;;;;1.87;1.20;;;;;;;;;;5113762;27;20230;-65
2022/09/19 12:02:58;;;;;;;2.80;1.30;;;;;;;;;;5118387;27;20254;-65
2022/09/19 12:05:44;;;;;;;2.13;1.10;;;;;;;;;;5108536;27;20232;-65
2022/09/19 12:08:13;;;;;;;2.60;1.50;;;;;;;;;;5115291;27;20282;-65
2022/09/19 12:10:43;;;;;;;5.90;1.70;;;;;;;;;;5115339;27;20195;-66
2022/09/19 12:13:14;;;;;;;5.00;1.20;;;;;;;;;;5115716;27;20210;-65
2022/09/19 12:15:46;;;;;;;2.20;1.50;;;;;;;;;;5115795;27;20227;-66
2022/09/19 12:18:29;;;;;;;1.33;1.10;;;;;;;;;;5119261;27;20301;-66
2022/09/19 12:20:57;;;;;;;3.90;1.27;;;;;;;;;;5117655;27;20299;-66
2022/09/19 12:26:29;;;;;;;2.63;1.23;;;;;;;;;;5132973;27;20198;-63
2022/09/19 12:29:02;;;;;;;2.80;1.20;;;;;;;;;;5114691;27;20736;-65
2022/09/19 12:31:34;;;;;;;1.60;1.23;;;;;;;;;;5115616;27;20199;-66
2022/09/19 12:34:14;;;;;;;2.60;1.23;;;;;;;;;;5115052;27;20230;-66
2022/09/19 12:36:50;;;;;;;1.43;1.13;;;;;;;;;;5111602;27;20203;-66
2022/09/19 12:39:32;;;;;;;2.13;0.90;;;;;;;;;;5114731;27;20301;-66
2022/09/19 12:42:19;;;;;;;1.87;1.13;;;;;;;;;;5114441;27;20245;-66
2022/09/19 12:44:47;;;;;;;1.23;1.00;;;;;;;;;;5131616;27;20247;-64
2022/09/19 12:47:25;;;;;;;2.40;1.30;;;;;;;;;;5111793;27;20291;-66
2022/09/19 12:50:13;;;;;;;2.93;1.10;;;;;;;;;;5114871;27;20222;-66
2022/09/19 12:52:44;;;;;;;5.67;1.57;;;;;;;;;;5133850;27;20303;-65
2022/09/19 12:55:20;;;;;;;3.80;1.37;;;;;;;;;;5113624;27;20227;-65
2022/09/19 12:57:55;;;;;;;2.73;1.27;;;;;;;;;;5114371;27;20202;-65
2022/09/19 13:00:22;;;;;;;2.47;1.13;;;;;;;;;;5114528;27;20238;-65
2022/09/19 13:02:51;;;;;;;1.20;1.00;;;;;;;;;;5114279;27;20395;-64
2022/09/19 13:05:40;;;;;;;1.13;0.95;;;;;;;;;;5114015;27;20223;-66
2022/09/19 13:08:13;;;;;;;2.08;0.90;;;;;;;;;;5115007;27;20239;-64
2022/09/19 13:10:54;;;;;;;3.00;1.00;;;;;;;;;;5107377;27;20287;-64
2022/09/19 13:13:33;;;;;;;1.30;0.85;;;;;;;;;;5114389;27;20282;-65
2022/09/19 13:16:01;;;;;;;3.08;1.05;;;;;;;;;;5110795;27;20199;-65
2022/09/19 13:24:06;;;;;;;2.80;1.13;;;;;;;;;;5139998;27;20312;-66
2022/09/19 13:26:35;;;;;;;2.03;0.90;;;;;;;;;;5127862;27;20290;-66
2022/09/19 13:29:10;;;;;;;1.27;0.77;;;;;;;;;;5113615;27;20211;-65
2022/09/19 13:31:52;;;;;;;1.88;1.00;;;;;;;;;;5113725;27;20281;-65
2022/09/19 13:34:39;;;;;;;1.05;0.90;;;;;;;;;;5114407;27;20276;-63
2022/09/19 13:37:25;;;;;;;1.58;0.80;;;;;;;;;;5114087;27;20326;-65
2022/09/19 13:40:06;;;;;;;1.17;0.60;;;;;;;;;;5108290;27;20215;-67
2022/09/19 13:42:40;;;;;;;0.70;0.70;;;;;;;;;;5113299;27;20680;-66
2022/09/19 13:45:26;;;;;;;1.88;0.95;;;;;;;;;;5129448;27;20264;-64
2022/09/19 13:47:56;;;;;;;2.55;0.90;;;;;;;;;;5107748;27;20214;-66
2022/09/19 13:50:23;;;;;;;0.90;0.80;;;;;;;;;;5114254;27;20294;-66
2022/09/19 13:53:01;;;;;;;1.95;0.80;;;;;;;;;;5113607;27;20243;-65
2022/09/19 13:55:31;;;;;;;1.33;0.80;;;;;;;;;;5113092;27;20237;-65
2022/09/19 13:58:17;;;;;;;1.77;1.35;;;;;;;;;;5110410;27;20370;-65
2022/09/19 14:00:46;;;;;;;1.15;0.70;;;;;;;;;;5124012;27;20223;-65
2022/09/19 14:03:30;;;;;;;1.35;0.95;;;;;;;;;;5113579;27;20231;-66
2022/09/19 14:06:26;;;;;;;0.73;0.73;;;;;;;;;;5112130;27;20648;-65
2022/09/19 14:09:12;;;;;;;1.70;0.93;;;;;;;;;;5106435;27;20255;-65
2022/09/19 14:11:59;;;;;;;1.67;1.00;;;;;;;;;;5115835;27;20221;-64
2022/09/19 14:14:40;;;;;;;4.50;1.50;;;;;;;;;;5113295;27;20318;-64
2022/09/19 14:17:30;;;;;;;1.13;0.90;;;;;;;;;;5113700;27;20239;-65
2022/09/19 14:20:03;;;;;;;1.97;0.90;;;;;;;;;;5113344;27;20196;-65
2022/09/19 14:22:39;;;;;;;1.10;1.00;;;;;;;;;;5112570;27;20294;-64
2022/09/19 14:25:14;;;;;;;1.13;0.90;;;;;;;;;;5112809;27;20254;-63
2022/09/19 14:27:55;;;;;;;2.47;0.80;;;;;;;;;;5112565;27;20287;-65
2022/09/19 14:30:47;;;;;;;1.17;0.80;;;;;;;;;;5112739;27;20200;-66
2022/09/19 14:33:23;;;;;;;1.50;0.70;;;;;;;;;;5112715;27;20691;-65
2022/09/19 14:36:13;;;;;;;1.47;1.10;;;;;;;;;;5129363;27;20567;-66
2022/09/19 14:38:53;;;;;;;0.87;0.70;;;;;;;;;;5133385;27;20222;-65
2022/09/19 14:41:20;;;;;;;0.80;0.80;;;;;;;;;;5133422;27;20293;-65
2022/09/19 14:43:54;;;;;;;1.00;0.90;;;;;;;;;;5133306;27;20737;-65
2022/09/19 14:46:26;;;;;;;2.30;1.00;;;;;;;;;;5151290;27;20309;-65
2022/09/19 14:49:05;;;;;;;3.10;1.10;;;;;;;;;;5133625;27;20561;-65
2022/09/19 14:51:37;;;;;;;2.03;1.00;;;;;;;;;;5127036;27;20607;-65
2022/09/19 14:54:07;;;;;;;2.70;0.90;;;;;;;;;;5116715;27;20322;-65
2022/09/19 14:56:36;;;;;;;2.37;1.20;;;;;;;;;;5116696;27;20198;-65
2022/09/19 14:59:03;;;;;;;1.33;0.80;;;;;;;;;;5117030;27;20209;-64
2022/09/19 15:01:32;;;;;;;2.03;0.82;;;;;;;;;;5116908;27;20213;-65
2022/09/19 15:04:01;;;;;;;1.45;0.80;;;;;;;;;;5116685;27;20500;-66
2022/09/19 15:06:36;;;;;;;1.10;0.70;;;;;;;;;;5104781;27;21149;-65
2022/09/19 15:09:04;;;;;;;2.00;0.60;;;;;;;;;;5122986;27;20233;-66
2022/09/19 15:11:31;;;;;;;0.60;0.60;;;;;;;;;;5137509;27;20428;-65
2022/09/19 15:14:00;;;;;;;0.57;0.50;;;;;;;;;;5136973;27;20237;-66
2022/09/19 15:16:27;;;;;;;0.60;0.60;;;;;;;;;;5136926;27;20206;-66
2022/09/19 15:18:58;;;;;;;2.55;0.73;;;;;;;;;;5136950;27;20213;-66
2022/09/19 15:21:27;;;;;;;0.60;0.60;;;;;;;;;;5136439;27;20293;-65
2022/09/19 15:23:59;;;;;;;1.58;0.70;;;;;;;;;;5136960;27;20330;-64
2022/09/19 15:26:31;;;;;;;1.90;0.50;;;;;;;;;;5135948;27;20298;-65
2022/09/19 15:28:59;;;;;;;3.03;0.70;;;;;;;;;;5119816;27;20291;-68
2022/09/19 15:31:30;;;;;;;0.70;0.50;;;;;;;;;;5115752;27;20286;-65
2022/09/19 15:34:01;;;;;;;1.40;0.52;;;;;;;;;;5115973;27;20272;-66